Cedar City, Utah Weather observations

Data are for observation ending at time listed.
 Day   Time    Ave.   Ave.  Ave.  Vector   Max.   Stn.    Total    Solar   Ave.  
  of    of     Air    Rel.  Wind   Wind    Wind   Baro.  Precip.   Rad.    Soil  
Year   Day     Temp.  Hum.  Speed  Dir.    Gust   Pres.                    Temp. 
2014   (MST)    F      %     mph   deg.    mph     mb.     in.     W/m2     F   
------------------------------------------------------------------------------
 355    3:50   37.0    65    4.2    90      7.1   823.6    0.00       0    37.2
 355    4:00   37.2    65    2.5    89      5.6   823.3    0.00       0    37.2
 355    4:10   36.6    67    1.9   161      5.3   823.2    0.00       0    37.2
 355    4:20   34.8    72    1.6   136      2.6   822.8    0.00       0    37.2
 355    4:30   34.3    75    2.5    84      3.9   822.5    0.00       0    37.2
 355    4:40   35.5    71    2.9    80      4.1   822.6    0.00       0    37.1
 355    4:50   36.0    68    2.0   174      4.5   822.8    0.00       0    37.1
 355    5:00   33.1    75    1.6   265      2.9   823.4    0.00       0    37.1
 355    5:10   32.7    78    2.2    96      3.3   823.9    0.00       0    37.1
 355    5:20   32.7    78    2.7    86      5.1   823.9    0.00       0    37.1
 355    5:30   33.1    78    1.5    91      3.5   824.1    0.00       0    37.1
 355    5:40   32.5    78    1.4   168      2.7   824.1    0.00       0    37.1
 355    5:50   33.7    77    3.5   103      6.5   823.8    0.00       0    37.1
 355    6:00   36.0    70    3.9   101      7.3   823.4    0.00       0    37.1
 355    6:10   36.1    69    3.7   107      6.8   823.2    0.00       0    37.1
 355    6:20   36.4    68    2.3   117      5.2   823.3    0.00       0    37.1
 355    6:30   35.8    70    1.8   132      3.9   822.9    0.00       0    37.0
 355    6:40   36.2    70    2.4    96      4.5   823.1    0.00       0    37.0
 355    6:50   35.7    70    2.3   183      4.3   823.5    0.00       0    37.0
 355    7:00   34.4    75    2.1   120      4.2   823.6    0.00       0    37.0
 355    7:10   36.2    70    3.0   107      5.1   823.7    0.00       0    37.0
 355    7:20   37.5    66    1.8    99      3.6   823.5    0.00       0    37.0
 355    7:30   36.0    70    1.2   188      2.8   823.4    0.00       0    37.0
 355    7:40   34.5    74    1.4   186      2.6   824.0    0.00       0    37.0
 355    7:50   34.1    77    2.2   136      3.9   823.9    0.00       3    37.0
 355    8:00   35.1    75    2.1   136      4.7   824.1    0.00       3    37.0
 355    8:10   35.9    73    1.1   114      3.8   824.0    0.00      12    37.0
 355    8:20   37.3    71    3.4    98      5.0   823.7    0.00      15    37.0
 355    8:30   38.9    66    5.6    91     10.4   823.2    0.00      31    37.0
 355    8:40   39.2    64    5.3    90     10.7   823.2    0.00      33    37.0
 355    8:50   39.8    64    3.1   125      7.5   823.4    0.00      64    37.0
 355    9:00   41.4    62    0.6   279      2.4   823.7    0.00     147    37.0
 355    9:10   43.7    59    1.1   166      2.7   824.1    0.00     143    37.0
 355    9:20   44.1    60    2.1   176      4.9   824.4    0.00     240    37.0
 355    9:30   45.5    58    1.5   155      3.1   824.5    0.00     255    37.1
 355    9:40   45.3    59    2.7   109      5.6   824.1    0.00     235    37.1
 355    9:50   45.2    59    3.0    86      5.3   824.2    0.00     122    37.1
 355   10:00   44.7    59    3.6    82      5.6   824.2    0.00     199    37.1
 355   10:10   45.4    58    3.5    90      6.4   824.3    0.00     330    37.1
 355   10:20   47.0    56    3.8    89      9.3   824.1    0.00     283    37.2
 355   10:30   46.6    57    5.0    82      8.6   824.0    0.00     350    37.2
 355   10:40   48.1    55    2.3    84      4.5   824.5    0.00     341    37.2
 355   10:50   49.4    54    1.6   151      3.4   824.7    0.00     249    37.2
 355   11:00   49.9    53    1.6   244      4.0   824.6    0.00     280    37.2
 355   11:10   51.3    52    2.8   192      4.8   824.5    0.00     265    37.3
 355   11:20   51.5    51    2.6   198      4.8   824.5    0.00     259    37.3
 355   11:30   52.6    50    2.7   185      5.4   824.4    0.00     332    37.4
 355   11:40   51.7    50    2.0   185      5.1   824.2    0.00     207    37.4
 355   11:50   51.3    51    2.4   194      5.0   824.1    0.00     368    37.4
 355   12:00   52.7    50    1.9   192      4.4   824.1    0.00     512    37.5
 355   12:10   52.3    49    2.5   245      5.0   824.0    0.00     362    37.6
 355   12:20   52.1    50    2.8   234      5.3   824.2    0.00     456    37.6
 355   12:30   52.7    49    1.8   191      4.2   823.5    0.00     395    37.7
 355   12:40   53.6    48    3.2   202      7.0   822.9    0.00     434    37.7
 355   12:50   53.8    47    3.0   202      6.5   822.7    0.00     443    37.8
 355   13:00   54.3    46    3.3   230      7.7   823.0    0.00     446    37.8
 355   13:10   53.9    46    3.0   216      7.6   823.2    0.00     336    37.9
 355   13:20   53.5    47    3.0   234      7.1   823.2    0.00     400    37.9
 355   13:30   54.2    46    3.1   208      7.7   823.2    0.00     453    37.9
 355   13:40   54.8    45    3.6   202      7.6   823.0    0.00     341    38.0
 355   13:50   54.2    47    2.3   214      6.7   822.9    0.00     286    38.1
 355   14:00   54.6    47    2.3   199      6.0   823.2    0.00     272    38.1
 355   14:10   54.8    46    1.3   189      3.9   823.1    0.00     396    38.1
 355   14:20   55.1    45    2.1   183      5.0   822.8    0.00     178    38.2
 355   14:30   54.5    46    1.1   190      4.0   822.7    0.00     148    38.2
 355   14:40   54.4    46    1.5   250      4.1   822.8    0.00     262    38.2
 355   14:50   55.1    46    1.0    90      3.4   822.7    0.00     349    38.3
 355   15:00   55.7    45    2.3   202      6.5   822.4    0.00     198    38.4
 355   15:10   55.8    45    2.4   191      5.8   822.4    0.00     166    38.4
 355   15:20   55.0    46    2.4   297      7.2   822.6    0.00     181    38.4
 355   15:30   54.5    46    4.5   245     10.4   822.4    0.00     158    38.5
 355   15:40   54.1    46    3.9   252      9.3   822.4    0.00     157    38.5
 355   15:50   54.5    46    4.3   244      8.7   822.6    0.00     185    38.6
 355   16:00   54.8    45    4.4   239     10.2   822.3    0.00     143    38.6
 355   16:10   54.5    46    4.7   227     10.2   822.4    0.00      95    38.7
 355   16:20   54.2    46    3.5   227      7.0   822.4    0.00      91    38.8
 355   16:30   53.5    47    2.9   219      5.6   822.7    0.00      73    38.8
 355   16:40   52.8    49    3.8   213      6.9   823.0    0.00      55    38.8
 355   16:50   51.8    51    3.3   189      8.9   823.1    0.00      36    38.9
 355   17:00   50.5    53    2.4   191      6.2   823.1    0.00      22    38.9
 355   17:10   49.5    55    1.7   167      4.0   823.3    0.00      11    38.9
 355   17:20   49.2    55    1.4   161      4.2   823.5    0.00       3    39.0
 355   17:30   49.1    55    1.2   151      3.2   823.3    0.00       2    39.0
 355   17:40   48.6    56    1.1   131      2.8   823.2    0.00       0    39.1
 355   17:50   48.1    56    0.9   139      3.5   823.1    0.00       0    39.1
 355   18:00   47.3    58    0.7   136      2.1   823.1    0.00       0    39.1
 355   18:10   47.1    58    2.0   108      3.9   823.0    0.00       0    39.1
 355   18:20   46.3    59    1.3   148      2.9   822.7    0.00       0    39.2
 355   18:30   45.1    62    0.9   167      2.6   822.5    0.00       0    39.2
 355   18:40   44.8    62    0.7   140      2.0   822.7    0.00       0    39.2
 355   18:50   45.1    62    1.3   117      2.3   823.0    0.00       0    39.2
 355   19:00   44.4    64    0.6   271      3.4   823.2    0.00       0    39.3
 355   19:10   44.4    64    0.7    97      1.9   823.2    0.00       0    39.2
 355   19:20   44.2    64    1.6    95      2.3   823.3    0.00       0    39.3
 355   19:30   45.2    62    2.8    93      5.3   823.4    0.00       0    39.3
 355   19:40   45.7    62    1.5   112      3.2   823.1    0.00       0    39.3
 355   19:50   45.5    62    2.3    96      4.7   823.1    0.00       0    39.3
 355   20:00   45.2    62    2.1   102      3.6   823.2    0.00       0    39.3
 355   20:10   44.9    63    2.2   103      6.0   823.3    0.00       0    39.3
 355   20:20   44.3    64    1.1   102      2.4   823.5    0.00       0    39.3
 355   20:30   43.8    65    1.8   114      4.5   823.4    0.00       0    39.3
 355   20:40   43.1    67    1.7   118      2.9   823.4    0.00       0    39.3
 355   20:50   42.4    69    2.0   104      4.2   823.3    0.00       0    39.3
 355   21:00   42.9    68    2.0    92      3.9   823.3    0.00       0    39.3
 355   21:10   43.0    67    1.4   113      2.3   823.4    0.00       0    39.3
 355   21:20   42.0    69    1.3   134      3.1   823.3    0.00       0    39.3
 355   21:30   42.0    70    2.5    82      3.7   823.4    0.00       0    39.3
 355   21:40   42.4    68    1.3   109      3.5   823.5    0.00       0    39.3
 355   21:50   41.3    70    2.0   100      4.2   823.4    0.00       0    39.3
 355   22:00   41.8    70    2.9    83      4.7   823.6    0.00       0    39.3
 355   22:10   41.7    70    1.3    98      3.5   823.7    0.00       0    39.3
 355   22:20   40.6    71    1.0   104      2.6   823.5    0.00       0    39.3
 355   22:30   40.4    73    2.6    88      3.8   823.6    0.00       0    39.3
 355   22:40   40.4    73    2.2    86      3.4   823.5    0.00       0    39.3
 355   22:50   40.7    72    1.8    92      2.7   823.6    0.00       0    39.3
 355   23:00   41.2    71    2.4    86      3.9   823.7    0.00       0    39.3
 355   23:10   40.7    72    2.3    75      3.4   823.9    0.00       0    39.3
 355   23:20   40.1    73    2.1   100      3.5   824.0    0.00       0    39.2
 355   23:30   40.0    74    2.3    96      4.6   823.9    0.00       0    39.2
 355   23:40   40.4    73    2.2    98      4.8   823.7    0.00       0    39.2
 355   23:50   39.7    74    2.0    95      3.8   823.3    0.00       0    39.2
 356    0:00   39.6    75    1.8    84      3.5   823.3    0.00       0    39.2
 356    0:10   39.7    75    2.1   108      3.7   823.7    0.00       0    39.2
 356    0:20   40.2    74    2.1   109      3.7   823.7    0.00       0    39.2
 356    0:30   39.9    73    1.6   127      3.4   823.6    0.00       0    39.1
 356    0:40   39.0    76    1.5   112      3.3   823.6    0.00       0    39.1
 356    0:50   38.4    77    1.3   125      2.9   823.7    0.00       0    39.1
 356    1:00   38.7    78    1.7   101      3.4   823.7    0.00       0    39.1
 356    1:10   40.7    73    2.5    93      3.9   823.6    0.00       0    39.1
 356    1:20   39.6    73    1.7   187      2.8   823.7    0.00       0    39.1
 356    1:30   37.7    76    2.2   163      4.1   823.6    0.00       0    39.1
 356    1:40   37.4    80    1.8   136      3.9   823.5    0.00       0    39.1
 356    1:50   37.6    79    1.2   110      2.7   823.5    0.00       0    39.1
 356    2:00   38.8    77    2.2    86      4.6   823.4    0.00       0    39.0
 356    2:10   39.5    75    3.2    82      6.4   823.5    0.00       0    39.1
 356    2:20   39.9    74    1.7   121      2.4   823.5    0.00       0    39.0
 356    2:30   39.8    75    3.2    77      6.1   823.6    0.00       0    39.0
 356    2:40   40.8    73    3.0    75      5.4   823.6    0.00       0    39.0
 356    2:50   41.3    72    0.9   110      4.4   823.5    0.00       0    39.0
 356    3:00   40.5    74    1.7   136      2.9   823.3    0.00       0    39.0
 356    3:10   39.9    76    1.8    82      3.2   823.4    0.00       0    39.0
 356    3:20   40.0    75    1.6    83      2.6   823.5    0.00       0    39.0
 356    3:30   39.7    75    1.7   126      2.9   823.4    0.00       0    38.9
 356    3:40   38.9    78    1.5    94      2.3   823.5    0.00       0    38.9

Return to Cedar City, Utah graphs page.


Western Regional Climate Center,wrcc@dri.edu